CW9529 Weather Reports


Display with metric or nautical units.
time (UTC)temp
F
wind
direction
speed
MPH
gust
MPH
rain 1hr
in
rain 24hr
in
rain mn
in
humidity
%
barometer
mb
20190424121305 64 137 0.0 0.0 0.00 0.00 0.00 75 1011.5
20190424120304 64 70 0.0 0.0 0.00 0.00 0.00 74 1011.2
20190424115303 65 70 0.0 0.0 0.00 0.00 0.00 74 1011.2
20190424114302 65 70 0.0 0.0 0.00 0.00 0.00 74 1011.2
20190424113158 65 70 0.0 0.0 0.00 0.00 0.00 74 1010.8
20190424112157 65 70 0.0 0.0 0.00 0.00 0.00 73 1010.8
20190424111156 66 92 0.0 0.0 0.00 0.00 0.00 72 1010.8
20190424110155 66 92 0.0 0.0 0.00 0.00 0.00 71 1010.8
20190424105019 67 92 0.0 0.0 0.00 0.00 0.00 71 1010.8
20190424103914 67 92 0.0 0.0 0.00 0.00 0.00 71 1010.8
20190424102913 67 90 2.0 3.0 0.00 0.00 0.00 71 1010.8
20190424101737 68 89 2.0 5.0 0.00 0.00 0.00 70 1010.8
20190424100736 68 31 3.0 3.0 0.00 0.00 0.00 70 1010.8
20190424095735 67 70 0.0 4.0 0.00 0.00 0.00 70 1010.8
20190424094630 68 85 2.0 6.0 0.00 0.00 0.00 71 1010.8
20190424093629 68 87 2.0 5.0 0.00 0.00 0.00 70 1010.8
20190424092525 68 88 2.0 4.0 0.00 0.00 0.00 69 1010.8
20190424091317 68 70 0.0 0.0 0.00 0.00 0.00 69 1010.8
20190424090211 68 70 0.0 4.0 0.00 0.00 0.00 67 1011.2
20190424085139 69 92 0.0 2.0 0.00 0.00 0.00 67 1011.2
20190424084108 69 92 2.0 5.0 0.00 0.00 0.00 67 1011.2
20190424083108 69 90 2.0 5.0 0.00 0.00 0.00 67 1011.5
20190424082104 69 71 3.0 6.0 0.00 0.00 0.00 66 1011.2
20190424081102 69 61 2.0 3.0 0.00 0.00 0.00 66 1011.2
20190424080030 69 92 3.0 3.0 0.00 0.00 0.00 66 1011.5
20190424074957 69 92 0.0 0.0 0.00 0.00 0.00 66 1011.2
20190424073956 70 92 0.0 0.0 0.00 0.00 0.00 65 1011.5
20190424072955 70 92 0.0 0.0 0.00 0.00 0.00 64 1011.5
20190424071819 71 92 0.0 0.0 0.00 0.00 0.00 63 1011.5
20190424070819 71 70 0.0 0.0 0.00 0.00 0.00 62 1011.2
20190424065818 71 47 0.0 0.0 0.00 0.00 0.00 62 1011.2
20190424064817 71 70 0.0 0.0 0.00 0.00 0.00 62 1011.2
20190424063609 71 70 0.0 0.0 0.00 0.00 0.00 61 1011.2
20190424062608 71 92 0.0 0.0 0.00 0.00 0.00 61 1011.2
20190424061503 72 92 0.0 0.0 0.00 0.00 0.00 61 1011.2
20190424060359 72 92 0.0 0.0 0.00 0.00 0.00 60 1011.2
20190424055358 72 92 0.0 0.0 0.00 0.00 0.00 60 1011.2
20190424054358 72 70 0.0 0.0 0.00 0.00 0.00 60 1011.5
20190424053356 72 92 0.0 2.0 0.00 0.00 0.00 60 1011.5
20190424052356 73 92 0.0 4.0 0.00 0.00 0.00 59 1011.5
20190424051355 73 62 2.0 3.0 0.00 0.00 0.00 59 1011.5
20190424050354 73 92 0.0 0.0 0.00 0.00 0.00 58 1011.5
20190424045352 74 92 0.0 0.0 0.00 0.00 0.00 58 1011.5
20190424044216 74 92 0.0 0.0 0.00 0.00 0.00 58 1011.5
20190424043215 74 47 0.0 0.0 0.00 0.00 0.00 56 1011.2
20190424042214 75 70 0.0 0.0 0.00 0.00 0.00 55 1011.5
20190424041213 75 70 0.0 0.0 0.00 0.00 0.00 55 1011.5
20190424040211 76 70 0.0 0.0 0.00 0.00 0.00 53 1011.2
20190424035107 77 70 0.0 0.0 0.00 0.00 0.00 54 1011.2
20190424034106 77 92 0.0 0.0 0.00 0.00 0.00 53 1011.2
20190424033033 78 92 0.0 0.0 0.00 0.00 0.00 51 1010.8
20190424032032 79 92 0.0 0.0 0.00 0.00 0.00 49 1010.8
20190424031032 80 92 0.0 0.0 0.00 0.00 0.00 47 1010.8
20190424025959 81 92 0.0 0.0 0.00 0.00 0.00 47 1010.8
20190424024926 81 205 0.0 0.0 0.00 0.00 0.00 45 1010.8
20190424023822 82 182 0.0 2.0 0.00 0.00 0.00 43 1010.8
20190424022821 82 182 2.0 2.0 0.00 0.00 0.00 43 1010.8
20190424021820 83 182 0.0 3.0 0.00 0.00 0.00 42 1010.8
20190424020819 84 115 0.0 2.0 0.00 0.00 0.00 41 1010.8
20190424015818 84 183 6.0 8.0 0.00 0.00 0.00 40 1010.5
20190424014745 85 160 0.0 5.0 0.00 0.00 0.00 38 1010.5
20190424013712 85 205 2.0 5.0 0.00 0.00 0.00 37 1010.8
20190424012712 85 182 2.0 5.0 0.00 0.00 0.00 37 1010.8
20190424011710 86 160 2.0 6.0 0.00 0.00 0.00 37 1010.8
20190424010709 87 164 2.0 5.0 0.00 0.00 0.00 36 1011.2
20190424005502 87 173 3.0 7.0 0.00 0.00 0.00 36 1011.2
20190424004429 88 160 2.0 6.0 0.00 0.00 0.00 34 1011.2
20190424003428 88 77 5.0 9.0 0.00 0.00 0.00 34 1011.2
20190424002427 88 182 2.0 5.0 0.00 0.00 0.00 33 1011.2
20190424001354 88 76 11.0 19.0 0.00 0.00 0.00 33 1011.2
20190424000250 88 301 4.0 5.0 0.00 0.00 0.00 31 1011.2
20190423235248 88 227 2.0 4.0 0.00 0.00 0.00 31 1011.5
20190423234216 88 275 3.0 7.0 0.00 0.00 0.00 33 1011.5
20190423233143 88 170 3.0 11.0 0.00 0.00 0.00 33 1011.5
20190423232007 88 212 3.0 8.0 0.00 0.00 0.00 32 1011.5
20190423230935 88 292 3.0 11.0 0.00 0.00 0.00 29 1011.5
20190423225933 88 221 5.0 9.0 0.00 0.00 0.00 30 1011.9
20190423224900 88 297 3.0 5.0 0.00 0.00 0.00 31 1012.2
20190423223724 88 336 4.0 7.0 0.00 0.00 0.00 31 1012.2
20190423222724 88 212 3.0 5.0 0.00 0.00 0.00 31 1012.2
20190423221723 89 286 3.0 7.0 0.00 0.00 0.00 31 1012.5
20190423220650 89 205 3.0 12.0 0.00 0.00 0.00 32 1012.9
20190423215650 89 205 3.0 6.0 0.00 0.00 0.00 31 1012.9
20190423214648 90 253 3.0 7.0 0.00 0.00 0.00 31 1012.9
20190423213647 90 234 4.0 7.0 0.00 0.00 0.00 31 1013.2
20190423212543 90 292 3.0 7.0 0.00 0.00 0.00 32 1013.2
20190423211542 89 222 3.0 6.0 0.00 0.00 0.00 32 1013.2
20190423210542 88 265 2.0 7.0 0.00 0.00 0.00 32 1013.5
20190423205437 89 32 3.0 7.0 0.00 0.00 0.00 32 1013.9
20190423204405 88 275 5.0 11.0 0.00 0.00 0.00 33 1013.5
20190423203301 88 210 4.0 9.0 0.00 0.00 0.00 33 1013.9
20190423202157 87 205 3.0 7.0 0.00 0.00 0.00 34 1014.2
20190423201124 86 182 2.0 3.0 0.00 0.00 0.00 37 1014.2
20190423200123 86 218 5.0 7.0 0.00 0.00 0.00 36 1014.2
20190423195122 85 221 4.0 7.0 0.00 0.00 0.00 38 1014.6
20190423194121 85 214 3.0 6.0 0.00 0.00 0.00 38 1014.6
20190423193120 84 260 3.0 6.0 0.00 0.00 0.00 39 1014.9
20190423192118 83 92 0.0 4.0 0.00 0.00 0.00 40 1014.9
20190423191118 83 272 2.0 6.0 0.00 0.00 0.00 40 1014.9
20190423190117 82 227 2.0 7.0 0.00 0.00 0.00 40 1015.2
20190423185012 81 229 3.0 6.0 0.00 0.00 0.00 41 1015.2
20190423184011 80 230 3.0 6.0 0.00 0.00 0.00 42 1015.2
20190423183013 80 186 3.0 9.0 0.00 0.00 0.00 43 1015.2
20190423182009 78 214 3.0 7.0 0.00 0.00 0.00 44 1015.6
20190423180905 78 198 3.0 5.0 0.00 0.00 0.00 45 1015.6
20190423175903 77 238 3.0 4.0 0.00 0.00 0.00 47 1015.6
20190423174831 76 241 5.0 7.0 0.00 0.00 0.00 47 1015.6
20190423173830 75 219 3.0 6.0 0.00 0.00 0.00 48 1015.6
20190423172828 74 237 2.0 4.0 0.00 0.00 0.00 51 1015.6
20190423171828 73 194 4.0 6.0 0.00 0.00 0.00 52 1015.6
20190423170827 72 256 3.0 6.0 0.00 0.00 0.00 52 1015.6
20190423165753 71 209 2.0 4.0 0.00 0.00 0.00 53 1015.9
20190423164720 70 190 2.0 2.0 0.00 0.00 0.00 56 1015.9
20190423163614 69 227 0.0 3.0 0.00 0.00 0.00 58 1015.9
20190423162613 68 250 0.0 3.0 0.00 0.00 0.00 60 1015.6
20190423161540 67 182 0.0 5.0 0.00 0.00 0.00 61 1015.6
20190423160434 66 205 2.0 7.0 0.00 0.00 0.00 61 1015.9
20190423155434 66 227 0.0 7.0 0.00 0.00 0.00 63 1015.9
20190423154432 65 2 0.0 3.0 0.00 0.00 0.00 64 1015.6
20190423153431 64 227 0.0 4.0 0.00 0.00 0.00 64 1015.6
20190423152430 62 182 0.0 0.0 0.00 0.00 0.00 66 1015.6
20190423151357 61 205 0.0 0.0 0.00 0.00 0.00 66 1015.2
20190423150356 60 317 0.0 0.0 0.00 0.00 0.00 65 1015.2
20190423145250 59 2 1.0 1.0 0.00 0.00 0.00 65 1015.2
20190423144145 59 272 0.0 0.0 0.00 0.00 0.00 64 1015.2
20190423143147 59 272 0.0 0.0 0.00 0.00 0.00 64 1015.2
20190423141901 58 182 0.0 0.0 0.00 0.00 0.00 63 1014.9
20190423140900 58 92 0.0 3.0 0.00 0.00 0.00 62 1015.2
20190423135858 58 70 2.0 2.0 0.00 0.00 0.00 60 1014.9
20190423134857 58 70 2.0 2.0 0.00 0.00 0.00 59 1014.9
20190423133720 59 317 0.0 2.0 0.00 0.00 0.00 58 1014.6
20190423132718 59 92 0.0 4.0 0.00 0.00 0.00 58 1014.2
20190423131612 59 92 0.0 3.0 0.00 0.00 0.00 56 1014.6
20190423130506 58 70 0.0 0.0 0.00 0.00 0.00 58 1014.2
20190423125433 58 70 0.0 3.0 0.00 0.00 0.00 59 1013.9
20190423124432 58 81 3.0 5.0 0.00 0.00 0.00 59 1013.9
20190423123358 59 89 3.0 3.0 0.00 0.00 0.00 58 1013.9
20190423122358 59 92 0.0 3.0 0.00 0.00 0.00 56 1013.9